Aérodrome :
LOGIN :

S'inscrire | Disclaimer

   EN    FR    IT 

 










Légende :    VFR   VFR Marginal   IFR   IFR Intensif   IFR Très Intensif
Visi : 
Plafond : 
>= 8 km
>= 3000ft
5 à 8 km
1000 à 3000 ft
1500m à 5 km
500 à 1000 ft
800 à 1500m
200 à 500 ft
< 800m
< 200 ft
Symboles :   Orages  Brouillard  Fortes neiges  Fortes précipitations  Vent > 20 kt
SIGMETs :   Divers  Orages  Givrage  Turbulence  Onde Orograph.  Cendres Volcan.







- Altitude de l'aérodrome : 13 ft
- Code IATA : CEQ
- Voir les cartes d'approche


LFMD - Cannes Mandelieu

DERNIER METAR :
  • 220130Z AUTO 02003KT 330V060 CAVOK 20/18 Q1011

METARs EXPIRÉS :
  • 220100Z AUTO VRB02KT CAVOK 20/18 Q1011
  • 220030Z AUTO VRB02KT CAVOK 21/18 Q1012
  • 220000Z AUTO 01003KT 330V050 CAVOK 21/18 Q1012
  • 212330Z AUTO 01003KT 320V040 CAVOK 21/18 Q1012
  • 212300Z AUTO 01003KT 340V060 CAVOK 21/18 Q1012

TAF TAF LFMD
Valide du 21 à 09h jusqu'au 22 à 09h UTC


210800Z 2109/2209 18010KT CAVOK
PROB40
TEMPO 2111/2116 SCT025TCU
BECMG 2116/2118 VRB02KT
PROB30
TEMPO 2200/2209 06010KT BKN014
ATIS : +33 4 93 48 73 23
Pas de NOTAMs connus pour ce terrain.



MET'MAP, la Météo Aéronautique d'un coup d'oeil ! - Copyright ORBIFLY Décembre 2007 - Disclaimer

ORBIFLY MET'MAP TEAM :

Programmation & Développement : Alexandra Zaïnal
Conception & Développement : Baudouin d'Aumeries
Co-Programmation & Développement : Marc-Olivier Méhu
Soutien technique & logistique : Manuel Goepfert

Contact : metmap@orbifly.com




SOURCES & CREDITS :

   NOAA